Time;durP1;ratioP1;P1;durP2;ratioP2;P2;SDS_P1;SDS_P2;PMS_P1;PMS_P2;Temp;Humidity;BMP_temperature;BMP_pressure;BME280_temperature;BME280_humidity;BME280_pressure;Samples;Min_cycle;Max_cycle;Signal;HPM_P1;HPM_P2
2021/03/17 00:01:00;;;;;;;10.52;2.50;;;2.40;99.90;;;;;;5064675;28;20383;-45
2021/03/17 00:03:26;;;;;;;16.23;5.20;;;2.40;99.90;;;;;;5051097;28;20467;-45
2021/03/17 00:05:52;;;;;;;8.85;2.60;;;2.40;99.90;;;;;;5049843;28;20033;-46
2021/03/17 00:08:19;;;;;;;7.60;2.50;;;2.40;99.90;;;;;;5051758;28;20123;-44
2021/03/17 00:10:46;;;;;;;11.60;3.03;;;2.40;99.90;;;;;;5056636;28;20028;-44
2021/03/17 00:13:12;;;;;;;9.88;2.42;;;2.40;99.90;;;;;;5049449;28;20056;-45
2021/03/17 00:15:40;;;;;;;12.95;3.13;;;2.50;99.90;;;;;;5047682;28;20478;-44
2021/03/17 00:18:08;;;;;;;8.55;1.98;;;2.50;99.90;;;;;;5061112;28;20128;-44
2021/03/17 00:20:34;;;;;;;7.78;2.30;;;2.50;99.90;;;;;;5065342;28;20356;-45
2021/03/17 00:22:59;;;;;;;17.55;2.90;;;2.50;99.90;;;;;;5069721;28;20067;-44
2021/03/17 00:25:36;;;;;;;12.90;3.63;;;2.50;99.90;;;;;;5053905;28;20033;-45
2021/03/17 00:28:03;;;;;;;12.32;3.03;;;2.50;99.90;;;;;;5061157;28;20056;-45
2021/03/17 00:30:30;;;;;;;8.77;2.20;;;2.50;99.90;;;;;;5066574;28;20149;-45
2021/03/17 00:32:57;;;;;;;7.32;2.30;;;2.50;99.90;;;;;;5054672;28;20020;-44
2021/03/17 00:35:23;;;;;;;8.85;1.98;;;2.40;99.90;;;;;;5065191;28;20111;-44
2021/03/17 00:37:49;;;;;;;13.02;2.58;;;2.40;99.90;;;;;;5056631;28;20036;-46
2021/03/17 00:40:15;;;;;;;6.82;2.17;;;2.40;99.90;;;;;;5050074;28;20095;-44
2021/03/17 00:42:41;;;;;;;7.47;2.15;;;2.30;99.90;;;;;;5059140;28;20124;-45
2021/03/17 00:45:07;;;;;;;7.45;2.38;;;2.30;99.90;;;;;;5067754;28;20025;-44
2021/03/17 00:47:32;;;;;;;4.82;2.10;;;2.30;99.90;;;;;;5061812;28;20109;-44
2021/03/17 00:49:58;;;;;;;11.32;2.75;;;2.30;99.90;;;;;;5069352;28;20454;-44
2021/03/17 00:52:23;;;;;;;7.10;2.10;;;2.30;99.90;;;;;;5060477;28;21366;-44
2021/03/17 00:54:50;;;;;;;7.32;1.95;;;2.30;99.90;;;;;;5068600;28;20060;-45
2021/03/17 00:57:16;;;;;;;5.90;1.90;;;2.20;99.90;;;;;;5063222;28;20025;-45
2021/03/17 00:59:41;;;;;;;5.22;2.05;;;2.20;99.90;;;;;;5067540;28;20032;-44
2021/03/17 01:02:07;;;;;;;3.53;1.70;;;2.20;99.90;;;;;;5065406;28;20029;-45
2021/03/17 01:04:33;;;;;;;4.88;1.55;;;2.20;99.90;;;;;;5048802;28;20095;-44
2021/03/17 01:06:58;;;;;;;5.53;1.85;;;2.20;99.90;;;;;;5046523;28;20037;-44
2021/03/17 01:09:23;;;;;;;10.20;1.90;;;2.20;99.90;;;;;;5048124;28;20036;-45
2021/03/17 01:11:49;;;;;;;6.35;2.00;;;2.20;99.90;;;;;;5052406;28;20032;-44
2021/03/17 01:14:15;;;;;;;8.77;2.63;;;2.20;99.90;;;;;;5049180;28;20027;-45
2021/03/17 01:16:41;;;;;;;9.27;1.90;;;2.30;99.90;;;;;;5048233;28;20251;-45
2021/03/17 01:19:07;;;;;;;12.07;2.75;;;2.30;99.90;;;;;;5068026;28;20029;-45
2021/03/17 01:21:32;;;;;;;5.43;2.58;;;2.40;99.90;;;;;;5058441;28;20567;-45
2021/03/17 01:23:58;;;;;;;6.85;2.42;;;2.40;99.90;;;;;;5065356;28;20038;-47
2021/03/17 01:26:24;;;;;;;7.97;2.00;;;2.40;99.90;;;;;;5059746;28;20025;-46
2021/03/17 01:28:50;;;;;;;7.30;2.47;;;2.40;99.90;;;;;;5060416;28;20024;-47
2021/03/17 01:31:15;;;;;;;9.32;2.33;;;2.50;99.90;;;;;;5054443;28;20334;-47
2021/03/17 01:33:41;;;;;;;11.48;2.22;;;2.50;99.90;;;;;;5057575;28;20032;-45
2021/03/17 01:36:07;;;;;;;7.13;2.35;;;2.50;99.90;;;;;;5066169;28;20132;-45
2021/03/17 01:38:33;;;;;;;10.90;2.20;;;2.60;99.90;;;;;;5063032;28;20498;-45
2021/03/17 01:40:59;;;;;;;5.95;2.22;;;2.50;99.90;;;;;;5048249;28;20075;-45
2021/03/17 01:43:24;;;;;;;7.65;2.20;;;2.60;99.90;;;;;;5061134;28;20029;-45
2021/03/17 01:45:51;;;;;;;8.48;2.15;;;2.60;99.90;;;;;;5054584;28;20032;-46
2021/03/17 01:48:17;;;;;;;11.40;2.50;;;2.60;99.90;;;;;;5055529;28;20105;-46
2021/03/17 01:50:48;;;;;;;15.68;3.00;;;2.70;99.90;;;;;;5062037;28;20071;-46
2021/03/17 01:53:21;;;;;;;7.95;2.20;;;2.70;99.90;;;;;;5048023;28;20529;-45
2021/03/17 01:55:48;;;;;;;8.82;2.00;;;2.70;99.90;;;;;;5047937;28;20513;-45
2021/03/17 01:58:16;;;;;;;8.02;2.10;;;2.70;99.90;;;;;;5047100;28;20017;-45
2021/03/17 02:00:42;;;;;;;9.65;2.13;;;2.80;99.90;;;;;;5055797;28;20056;-44
2021/03/17 02:03:09;;;;;;;4.78;1.65;;;2.80;99.90;;;;;;5047021;28;20029;-45
2021/03/17 02:05:41;;;;;;;6.97;1.90;;;2.80;99.90;;;;;;5051872;28;20426;-46
2021/03/17 02:08:11;;;;;;;11.23;3.20;;;2.80;99.90;;;;;;5056665;28;20060;-45
2021/03/17 02:10:38;;;;;;;;;;;2.80;99.90;;;;;;5046817;28;20036;-47
2021/03/17 02:13:32;;;;;;;5.28;2.03;;;2.80;99.90;;;;;;5057427;28;19966;-46
2021/03/17 02:16:17;;;;;;;5.97;2.25;;;2.80;99.90;;;;;;5048046;28;20025;-46
2021/03/17 02:19:17;;;;;;;12.15;2.15;;;2.80;99.90;;;;;;5047334;28;20025;-45
2021/03/17 02:22:16;;;;;;;14.15;2.15;;;2.80;99.90;;;;;;5048320;28;20033;-46
2021/03/17 02:25:05;;;;;;;7.47;2.10;;;2.80;99.90;;;;;;5047229;28;20302;-45
2021/03/17 02:28:12;;;;;;;5.70;1.83;;;2.80;99.90;;;;;;5048983;28;20049;-46
2021/03/17 02:30:53;;;;;;;12.65;2.05;;;2.80;99.90;;;;;;5056465;28;20037;-45
2021/03/17 02:33:52;;;;;;;11.57;2.15;;;2.80;99.90;;;;;;5047541;28;20036;-44
2021/03/17 02:36:25;;;;;;;4.50;1.75;;;2.80;99.90;;;;;;5046482;28;20025;-45
2021/03/17 02:39:11;;;;;;;9.18;2.67;;;2.70;99.90;;;;;;5054443;28;20024;-45
2021/03/17 02:41:47;;;;;;;10.10;2.40;;;2.70;99.90;;;;;;5062645;28;20116;-45
2021/03/17 02:44:17;;;;;;;6.57;2.60;;;2.70;99.90;;;;;;5061251;28;20036;-45
2021/03/17 02:46:44;;;;;;;13.30;2.17;;;2.70;99.90;;;;;;5047049;28;20025;-45
2021/03/17 02:49:18;;;;;;;5.97;2.38;;;2.70;99.90;;;;;;5047201;28;20059;-44
2021/03/17 02:51:49;;;;;;;6.60;2.15;;;2.70;99.90;;;;;;5055433;28;20098;-46
2021/03/17 02:54:17;;;;;;;7.20;2.15;;;2.70;99.90;;;;;;5048155;28;20029;-45
2021/03/17 02:56:47;;;;;;;4.47;1.58;;;2.70;99.90;;;;;;5046124;28;20029;-45
2021/03/17 02:59:16;;;;;;;8.35;2.55;;;2.70;99.90;;;;;;5047198;28;20075;-44
2021/03/17 03:01:43;;;;;;;5.63;2.30;;;2.70;99.90;;;;;;5049007;28;20087;-45
2021/03/17 03:04:10;;;;;;;8.02;2.10;;;2.70;99.90;;;;;;5060276;28;20436;-46
2021/03/17 03:06:39;;;;;;;6.80;2.17;;;2.70;99.90;;;;;;5058091;28;20450;-45
2021/03/17 03:09:06;;;;;;;8.18;2.03;;;2.70;99.90;;;;;;5050049;28;20083;-45
2021/03/17 03:11:31;;;;;;;6.18;1.77;;;2.70;99.90;;;;;;5053115;28;20544;-46
2021/03/17 03:13:57;;;;;;;10.00;2.20;;;2.70;99.90;;;;;;5069641;28;20032;-45
2021/03/17 03:16:24;;;;;;;6.22;1.83;;;2.70;99.90;;;;;;5059795;28;20032;-45
2021/03/17 03:18:52;;;;;;;10.27;2.75;;;2.60;99.90;;;;;;5055607;28;20024;-45
2021/03/17 03:21:19;;;;;;;16.23;3.10;;;2.60;99.90;;;;;;5062243;28;20017;-48
2021/03/17 03:23:47;;;;;;;12.27;2.40;;;2.60;99.90;;;;;;5052485;28;20086;-45
2021/03/17 03:26:15;;;;;;;7.05;2.72;;;2.60;99.90;;;;;;5048013;28;20410;-45
2021/03/17 03:28:42;;;;;;;10.32;2.65;;;2.60;99.90;;;;;;5050760;28;20039;-44
2021/03/17 03:31:08;;;;;;;6.90;2.75;;;2.60;99.90;;;;;;5052541;28;20367;-44
2021/03/17 03:33:34;;;;;;;8.82;2.85;;;2.60;99.90;;;;;;5057568;28;20135;-44
2021/03/17 03:35:59;;;;;;;8.82;2.58;;;2.60;99.90;;;;;;5057857;28;20270;-44
2021/03/17 03:38:25;;;;;;;15.02;2.88;;;2.60;99.90;;;;;;5053904;28;20048;-45
2021/03/17 03:40:52;;;;;;;10.73;2.42;;;2.60;99.90;;;;;;5050126;28;20033;-45
2021/03/17 03:43:17;;;;;;;12.07;3.25;;;2.60;99.90;;;;;;5052379;28;20120;-45
2021/03/17 03:45:43;;;;;;;12.88;2.72;;;2.60;99.90;;;;;;5052917;28;20590;-45
2021/03/17 03:48:09;;;;;;;15.02;3.22;;;2.60;99.90;;;;;;5051464;28;20306;-45
2021/03/17 03:50:42;;;;;;;7.32;2.20;;;2.60;99.90;;;;;;5054602;28;20106;-45
2021/03/17 03:53:37;;;;;;;8.35;3.28;;;2.60;99.90;;;;;;5059212;28;20382;-47
2021/03/17 03:56:05;;;;;;;9.50;2.65;;;2.60;99.90;;;;;;5060213;28;20432;-45
2021/03/17 03:58:41;;;;;;;8.20;3.15;;;2.50;99.90;;;;;;5057753;28;20017;-45
2021/03/17 04:01:22;;;;;;;13.13;5.10;;;2.50;99.90;;;;;;5059294;28;20576;-45
2021/03/17 04:03:53;;;;;;;8.57;3.13;;;2.50;99.90;;;;;;5057779;28;20025;-45
2021/03/17 04:06:19;;;;;;;10.02;3.30;;;2.50;99.90;;;;;;5055878;28;20040;-45
2021/03/17 04:08:47;;;;;;;10.55;2.85;;;2.50;99.90;;;;;;5059373;28;20369;-44
2021/03/17 04:11:15;;;;;;;12.57;3.40;;;2.40;99.90;;;;;;5060316;28;20031;-45
2021/03/17 04:13:41;;;;;;;6.25;3.13;;;2.40;99.90;;;;;;5057238;28;20038;-45
2021/03/17 04:16:09;;;;;;;12.68;3.50;;;2.40;99.90;;;;;;5056957;28;20048;-45
2021/03/17 04:18:42;;;;;;;8.27;3.63;;;2.40;99.90;;;;;;5058513;28;20025;-44
2021/03/17 04:21:20;;;;;;;7.68;2.88;;;2.40;99.90;;;;;;5055828;28;20036;-45
2021/03/17 04:23:48;;;;;;;8.40;3.28;;;2.40;99.90;;;;;;5058048;28;20036;-45
2021/03/17 04:26:16;;;;;;;8.50;3.65;;;2.40;99.90;;;;;;5056020;28;20103;-46
2021/03/17 04:28:43;;;;;;;13.10;3.88;;;2.40;99.90;;;;;;5057920;28;20032;-45
2021/03/17 04:31:10;;;;;;;8.07;2.90;;;2.40;99.90;;;;;;5055909;28;20031;-44
2021/03/17 04:33:37;;;;;;;10.52;3.63;;;2.40;99.90;;;;;;5059140;28;20422;-44
2021/03/17 04:36:03;;;;;;;13.25;3.00;;;2.50;99.90;;;;;;5056300;28;20505;-44
2021/03/17 04:38:29;;;;;;;12.95;3.28;;;2.40;99.90;;;;;;5058179;28;20033;-45
2021/03/17 04:40:56;;;;;;;8.40;3.35;;;2.40;99.90;;;;;;5056510;28;20059;-45
2021/03/17 04:43:22;;;;;;;16.30;4.50;;;2.40;99.90;;;;;;5057543;28;20037;-45
2021/03/17 04:45:48;;;;;;;15.23;3.80;;;2.40;99.90;;;;;;5056719;28;20071;-45
2021/03/17 04:48:14;;;;;;;14.05;3.70;;;2.40;99.90;;;;;;5056131;28;20035;-44
2021/03/17 04:50:40;;;;;;;14.43;3.45;;;2.40;99.90;;;;;;5056904;28;20402;-45
2021/03/17 04:53:10;;;;;;;13.75;3.40;;;2.40;99.90;;;;;;5056972;28;20017;-46
2021/03/17 04:55:35;;;;;;;11.60;3.35;;;2.40;99.90;;;;;;5056049;28;20034;-45
2021/03/17 04:58:02;;;;;;;10.60;3.53;;;2.40;99.90;;;;;;5058267;28;20029;-45
2021/03/17 05:00:29;;;;;;;7.85;3.47;;;2.40;99.90;;;;;;5056952;28;20411;-46
2021/03/17 05:03:01;;;;;;;11.30;2.92;;;2.30;99.90;;;;;;5057066;28;20378;-44
2021/03/17 05:05:29;;;;;;;8.75;3.75;;;2.40;99.90;;;;;;5057633;28;20512;-45
2021/03/17 05:07:55;;;;;;;7.45;3.20;;;2.30;99.90;;;;;;5053115;28;20491;-44
2021/03/17 05:10:23;;;;;;;11.02;3.20;;;2.30;99.90;;;;;;5054249;28;20063;-45
2021/03/17 05:12:50;;;;;;;21.02;3.42;;;2.30;99.90;;;;;;5068320;28;20059;-44
2021/03/17 05:15:17;;;;;;;8.40;3.10;;;2.30;99.90;;;;;;5051011;28;20132;-45
2021/03/17 05:17:46;;;;;;;27.40;5.90;;;2.30;99.90;;;;;;5053767;28;20035;-45
2021/03/17 05:20:21;;;;;;;14.15;3.88;;;2.30;99.90;;;;;;5057505;28;20032;-47
2021/03/17 05:22:48;;;;;;;8.07;3.28;;;2.30;99.90;;;;;;5051194;28;20036;-47
2021/03/17 05:25:15;;;;;;;11.15;4.18;;;2.30;99.90;;;;;;5046985;28;20025;-46
2021/03/17 05:27:42;;;;;;;9.45;3.35;;;2.30;99.90;;;;;;5055436;28;20647;-45
2021/03/17 05:30:10;;;;;;;9.65;5.20;;;2.30;99.90;;;;;;5068276;28;20044;-45
2021/03/17 05:32:39;;;;;;;6.63;2.60;;;2.30;99.90;;;;;;5064799;28;20254;-44
2021/03/17 05:35:07;;;;;;;11.95;3.13;;;2.30;99.90;;;;;;5048040;28;20275;-44
2021/03/17 05:37:33;;;;;;;12.18;3.17;;;2.30;99.90;;;;;;5048827;28;20017;-45
2021/03/17 05:39:58;;;;;;;12.07;3.30;;;2.30;99.90;;;;;;5046561;28;20281;-45
2021/03/17 05:42:25;;;;;;;10.00;3.53;;;2.30;99.90;;;;;;5052394;28;20021;-45
2021/03/17 05:44:52;;;;;;;13.48;3.67;;;2.30;99.90;;;;;;5049417;28;20032;-44
2021/03/17 05:47:19;;;;;;;7.88;3.22;;;2.30;99.90;;;;;;5048441;28;20025;-46
2021/03/17 05:49:45;;;;;;;9.63;2.78;;;2.30;99.90;;;;;;5048441;28;20021;-45
2021/03/17 05:52:13;;;;;;;9.60;3.10;;;2.30;99.90;;;;;;5049586;28;20440;-45
2021/03/17 05:54:39;;;;;;;14.35;3.42;;;2.30;99.90;;;;;;5066855;28;20035;-45
2021/03/17 05:57:05;;;;;;;10.75;3.63;;;2.40;99.90;;;;;;5056102;28;20025;-46
2021/03/17 05:59:31;;;;;;;8.93;3.33;;;2.40;99.90;;;;;;5047963;28;20426;-46
2021/03/17 06:01:58;;;;;;;8.02;3.08;;;2.40;99.90;;;;;;5060927;28;20066;-46
2021/03/17 06:04:26;;;;;;;9.48;3.55;;;2.40;99.90;;;;;;5062857;28;20017;-45
2021/03/17 06:06:56;;;;;;;13.63;3.83;;;2.40;99.90;;;;;;5047604;28;20758;-46
2021/03/17 06:09:24;;;;;;;10.45;4.03;;;2.40;99.90;;;;;;5046920;28;20035;-45
2021/03/17 06:11:51;;;;;;;5.88;3.00;;;2.40;99.90;;;;;;5057535;28;20120;-46
2021/03/17 06:14:26;;;;;;;11.02;3.65;;;2.40;99.90;;;;;;5058341;28;20036;-48
2021/03/17 06:16:59;;;;;;;9.45;3.67;;;2.40;99.90;;;;;;5067501;28;20055;-44
2021/03/17 06:19:27;;;;;;;16.45;5.25;;;2.40;99.90;;;;;;5055988;28;20021;-45
2021/03/17 06:21:55;;;;;;;9.13;4.28;;;2.50;99.90;;;;;;5055315;28;20506;-45
2021/03/17 06:24:21;;;;;;;11.10;3.78;;;2.50;99.90;;;;;;5053089;28;20033;-46
2021/03/17 06:26:48;;;;;;;9.57;3.50;;;2.50;99.90;;;;;;5054417;28;20453;-47
2021/03/17 06:29:17;;;;;;;7.85;3.22;;;2.60;99.90;;;;;;5055546;28;20074;-46
2021/03/17 06:31:44;;;;;;;8.48;3.22;;;2.60;99.90;;;;;;5049287;28;20406;-46
2021/03/17 06:34:10;;;;;;;8.35;3.53;;;2.50;99.90;;;;;;5052449;28;20120;-45
2021/03/17 06:36:50;;;;;;;8.05;3.22;;;2.60;99.90;;;;;;5056866;28;20596;-46
2021/03/17 06:39:16;;;;;;;10.75;3.42;;;2.60;99.90;;;;;;5054816;28;20025;-47
2021/03/17 06:41:46;;;;;;;8.93;3.17;;;2.70;99.90;;;;;;5054488;28;20106;-46
2021/03/17 06:44:12;;;;;;;7.38;3.10;;;2.70;99.90;;;;;;5054312;28;20121;-44
2021/03/17 06:46:38;;;;;;;7.43;2.92;;;2.80;99.90;;;;;;5054308;28;20104;-46
2021/03/17 06:49:05;;;;;;;7.32;3.13;;;2.90;99.90;;;;;;5054519;28;20136;-46
2021/03/17 06:51:33;;;;;;;12.18;3.60;;;2.90;99.90;;;;;;5064757;28;20064;-46
2021/03/17 06:54:05;;;;;;;9.52;3.72;;;2.90;99.90;;;;;;5059958;28;20112;-46
2021/03/17 06:56:35;;;;;;;7.28;2.90;;;3.00;99.90;;;;;;5048214;28;20110;-46
2021/03/17 06:59:07;;;;;;;12.47;4.47;;;3.10;99.90;;;;;;5056159;28;20048;-47
2021/03/17 07:01:40;;;;;;;13.73;4.38;;;3.00;99.90;;;;;;5047495;28;20605;-46
2021/03/17 07:04:19;;;;;;;14.45;3.75;;;3.10;99.90;;;;;;5056353;28;20623;-44
2021/03/17 07:06:47;;;;;;;11.75;3.45;;;3.10;99.90;;;;;;5052910;28;20036;-47
2021/03/17 07:09:14;;;;;;;8.10;3.17;;;3.20;99.90;;;;;;5067323;28;20029;-44
2021/03/17 07:11:39;;;;;;;10.57;3.22;;;3.30;99.90;;;;;;5052258;28;20120;-44
2021/03/17 07:14:05;;;;;;;12.32;3.78;;;3.40;99.90;;;;;;5046485;28;20167;-44
2021/03/17 07:16:39;;;;;;;9.55;3.15;;;3.40;99.90;;;;;;5046739;28;20440;-45
2021/03/17 07:19:06;;;;;;;7.10;3.63;;;3.50;99.90;;;;;;5047462;28;20025;-45
2021/03/17 07:21:39;;;;;;;9.13;3.28;;;3.50;99.90;;;;;;5048496;28;20033;-45
2021/03/17 07:24:07;;;;;;;6.32;2.97;;;3.60;99.90;;;;;;5060163;28;20085;-46
2021/03/17 07:26:37;;;;;;;12.15;3.25;;;3.70;99.90;;;;;;5066576;28;20078;-45
2021/03/17 07:29:11;;;;;;;8.95;3.10;;;3.80;99.90;;;;;;5049960;28;20403;-45
2021/03/17 07:31:48;;;;;;;12.70;3.25;;;3.80;99.90;;;;;;5045751;28;20152;-44
2021/03/17 07:34:19;;;;;;;9.38;3.50;;;3.90;99.90;;;;;;5050385;28;20039;-45
2021/03/17 07:36:50;;;;;;;9.68;3.60;;;3.90;99.90;;;;;;5064499;28;20056;-45
2021/03/17 07:39:22;;;;;;;11.57;3.63;;;3.90;99.90;;;;;;5056097;28;20029;-46
2021/03/17 07:41:50;;;;;;;7.53;3.22;;;3.90;99.90;;;;;;5051725;28;20040;-46
2021/03/17 07:44:17;;;;;;;10.68;3.17;;;4.00;99.90;;;;;;5062832;28;20505;-47
2021/03/17 07:46:47;;;;;;;9.55;2.90;;;4.00;99.90;;;;;;5051542;28;20037;-45
2021/03/17 07:49:14;;;;;;;9.10;2.75;;;4.10;99.90;;;;;;5051748;28;20464;-46
2021/03/17 07:51:46;;;;;;;7.30;3.47;;;4.20;99.90;;;;;;5053971;28;20491;-45
2021/03/17 07:54:19;;;;;;;11.65;3.05;;;4.30;99.90;;;;;;5046020;28;20025;-46
2021/03/17 07:56:45;;;;;;;18.58;3.97;;;4.30;99.90;;;;;;5061893;28;20035;-46
2021/03/17 07:59:11;;;;;;;11.88;3.03;;;4.30;99.90;;;;;;5055663;28;20021;-45
2021/03/17 08:01:38;;;;;;;4.55;2.55;;;4.30;99.90;;;;;;5054331;28;20146;-48
2021/03/17 08:04:05;;;;;;;6.38;2.75;;;4.40;99.90;;;;;;5054367;28;20040;-46
2021/03/17 08:06:30;;;;;;;6.10;2.60;;;4.40;99.90;;;;;;5057513;28;20485;-45
2021/03/17 08:08:58;;;;;;;11.20;2.95;;;4.40;99.90;;;;;;5055996;28;20052;-45
2021/03/17 08:11:26;;;;;;;8.05;2.72;;;4.40;99.90;;;;;;5052160;28;20114;-46
2021/03/17 08:13:52;;;;;;;8.82;2.70;;;4.40;99.90;;;;;;5050395;28;20032;-45
2021/03/17 08:16:22;;;;;;;10.70;2.40;;;4.50;99.90;;;;;;5056526;28;20370;-44
2021/03/17 08:18:50;;;;;;;6.88;2.58;;;4.50;99.90;;;;;;5058330;28;20043;-46
2021/03/17 08:21:42;;;;;;;4.07;2.72;;;4.50;99.90;;;;;;5055060;28;20020;-46
2021/03/17 08:24:08;;;;;;;14.02;3.35;;;4.60;99.90;;;;;;5058178;28;20132;-49
2021/03/17 08:26:36;;;;;;;6.28;2.72;;;4.60;99.90;;;;;;5053911;28;20038;-45
2021/03/17 08:29:02;;;;;;;12.35;3.20;;;4.60;99.90;;;;;;5056843;28;20394;-46
2021/03/17 08:31:37;;;;;;;11.27;2.40;;;4.70;99.90;;;;;;5054926;28;20406;-46
2021/03/17 08:34:17;;;;;;;7.57;2.40;;;4.70;99.90;;;;;;5052709;28;20486;-46
2021/03/17 08:36:43;;;;;;;10.20;2.38;;;4.70;99.90;;;;;;5056110;28;20039;-46
2021/03/17 08:39:09;;;;;;;7.47;2.30;;;4.70;99.90;;;;;;5054876;28;20394;-45
2021/03/17 08:41:44;;;;;;;10.10;2.45;;;4.70;99.90;;;;;;5058078;28;20036;-46
2021/03/17 08:44:14;;;;;;;15.18;3.53;;;4.80;99.90;;;;;;5055094;28;20033;-45
2021/03/17 08:46:40;;;;;;;10.63;2.60;;;4.90;99.90;;;;;;5047667;28;20043;-46
2021/03/17 08:49:14;;;;;;;7.65;2.38;;;5.00;99.90;;;;;;5058779;28;20402;-46
2021/03/17 08:51:45;;;;;;;10.45;2.65;;;5.10;99.90;;;;;;5055633;28;20025;-46
2021/03/17 08:54:33;;;;;;;12.63;2.78;;;5.10;99.90;;;;;;5049922;28;20561;-46
2021/03/17 08:56:59;;;;;;;7.78;2.22;;;5.20;99.90;;;;;;5056482;28;20550;-46
2021/03/17 08:59:56;;;;;;;8.48;2.35;;;5.30;99.90;;;;;;5057305;28;20503;-49
2021/03/17 09:02:24;;;;;;;8.07;3.30;;;5.30;99.90;;;;;;5052501;28;20391;-47
2021/03/17 09:04:55;;;;;;;15.52;2.60;;;5.40;99.90;;;;;;5064653;28;20025;-45
2021/03/17 09:07:22;;;;;;;6.80;2.28;;;5.40;99.90;;;;;;5061598;28;20064;-45
2021/03/17 09:09:51;;;;;;;9.35;2.35;;;5.50;99.90;;;;;;5056271;28;20363;-46
2021/03/17 09:12:26;;;;;;;11.60;2.90;;;5.50;99.90;;;;;;5057212;28;20045;-49
2021/03/17 09:15:13;;;;;;;5.13;2.40;;;5.50;99.90;;;;;;5050359;28;20025;-46
2021/03/17 09:17:50;;;;;;;6.07;2.50;;;5.60;99.90;;;;;;5048445;28;20490;-45
2021/03/17 09:20:43;;;;;;;7.72;2.92;;;5.70;99.90;;;;;;5053683;28;20025;-46
2021/03/17 09:23:10;;;;;;;7.82;2.63;;;5.90;99.90;;;;;;5048321;28;20036;-46
2021/03/17 09:25:55;;;;;;;9.25;2.72;;;6.00;99.90;;;;;;5048242;28;20025;-46
2021/03/17 09:28:23;;;;;;;7.18;2.38;;;6.10;99.90;;;;;;5048073;28;20074;-49
2021/03/17 09:30:58;;;;;;;8.63;2.72;;;6.20;99.90;;;;;;5048872;28;20078;-46
2021/03/17 09:33:42;;;;;;;6.32;2.30;;;6.30;99.90;;;;;;5047672;28;20106;-47
2021/03/17 09:36:19;;;;;;;5.65;2.15;;;6.30;99.90;;;;;;5056722;28;20394;-47
2021/03/17 09:38:52;;;;;;;10.20;2.03;;;6.30;99.90;;;;;;5052997;28;20047;-46
2021/03/17 09:41:20;;;;;;;8.70;2.67;;;6.40;99.90;;;;;;5062237;28;20443;-48
2021/03/17 09:43:48;;;;;;;8.82;2.90;;;6.50;99.90;;;;;;5056450;28;20029;-46
2021/03/17 09:46:41;;;;;;;6.18;1.63;;;6.40;99.90;;;;;;5058284;28;20036;-46
2021/03/17 09:49:08;;;;;;;8.90;2.13;;;6.40;99.90;;;;;;5064467;28;20028;-47
2021/03/17 09:51:39;;;;;;;3.25;1.85;;;6.50;99.90;;;;;;5052701;28;20264;-46
2021/03/17 09:54:07;;;;;;;8.45;1.73;;;6.60;99.90;;;;;;5059077;28;21106;-47
2021/03/17 09:56:46;;;;;;;6.43;2.13;;;6.60;99.90;;;;;;5057403;28;20015;-46
2021/03/17 09:59:35;;;;;;;9.55;2.00;;;6.50;99.90;;;;;;5062967;28;20021;-49
2021/03/17 10:02:09;;;;;;;6.78;2.25;;;6.50;99.90;;;;;;5058907;28;20033;-47
2021/03/17 10:04:42;;;;;;;10.20;2.00;;;6.60;99.90;;;;;;5059890;28;20027;-46
2021/03/17 10:07:14;;;;;;;9.93;2.05;;;6.50;99.90;;;;;;5055041;28;20117;-46
2021/03/17 10:09:42;;;;;;;9.07;2.30;;;6.50;99.90;;;;;;5059477;28;20529;-46
2021/03/17 10:12:12;;;;;;;5.68;2.70;;;6.60;99.90;;;;;;5058728;28;20039;-46
2021/03/17 10:14:46;;;;;;;10.50;1.90;;;6.60;99.90;;;;;;5048292;28;20086;-46
2021/03/17 10:17:13;;;;;;;7.28;2.58;;;6.60;99.90;;;;;;5054098;28;20013;-46
2021/03/17 10:19:39;;;;;;;7.97;2.05;;;6.80;99.90;;;;;;5054810;28;20021;-47
2021/03/17 10:22:06;;;;;;;6.65;2.10;;;6.90;99.90;;;;;;5052738;28;20490;-46
2021/03/17 10:24:41;;;;;;;9.65;2.03;;;7.00;99.90;;;;;;5047577;28;20036;-47
2021/03/17 10:27:10;;;;;;;7.38;2.15;;;7.10;99.90;;;;;;5045283;28;20352;-46
2021/03/17 10:29:36;;;;;;;14.18;2.40;;;7.20;99.90;;;;;;5045061;28;20033;-49
2021/03/17 10:32:07;;;;;;;6.38;2.10;;;7.30;99.90;;;;;;5044090;28;20508;-49
2021/03/17 10:34:33;;;;;;;7.65;1.70;;;7.50;99.90;;;;;;5056833;28;20021;-48
2021/03/17 10:36:59;;;;;;;11.30;2.13;;;7.40;99.90;;;;;;5051903;28;20364;-46
2021/03/17 10:39:28;;;;;;;6.57;2.30;;;7.40;99.90;;;;;;5056745;28;20327;-46
2021/03/17 10:41:55;;;;;;;8.35;1.83;;;7.30;99.90;;;;;;5053180;28;20500;-46
2021/03/17 10:44:24;;;;;;;6.43;2.58;;;7.30;99.90;;;;;;5045470;28;20653;-46
2021/03/17 10:47:00;;;;;;;5.13;1.73;;;7.30;99.90;;;;;;5043467;28;20061;-48
2021/03/17 10:49:27;;;;;;;4.97;2.25;;;7.30;99.90;;;;;;5044247;28;20032;-46
2021/03/17 10:51:55;;;;;;;6.15;2.13;;;7.30;99.90;;;;;;5046996;28;20029;-46
2021/03/17 10:54:36;;;;;;;6.18;1.90;;;7.30;99.90;;;;;;5055130;28;20032;-47
2021/03/17 10:57:03;;;;;;;9.52;2.42;;;7.50;99.90;;;;;;5048697;28;20104;-49
2021/03/17 10:59:37;;;;;;;9.55;2.63;;;7.60;99.90;;;;;;5060730;28;20032;-47
2021/03/17 11:02:13;;;;;;;4.90;1.80;;;7.80;99.90;;;;;;5058465;28;20043;-46
2021/03/17 11:04:39;;;;;;;5.32;2.00;;;7.90;99.90;;;;;;5044295;28;20040;-47
2021/03/17 11:07:04;;;;;;;6.05;1.83;;;8.10;99.90;;;;;;5044812;28;20036;-47
2021/03/17 11:09:39;;;;;;;13.68;1.90;;;8.30;99.80;;;;;;5045988;28;20036;-46
2021/03/17 11:12:11;;;;;;;9.10;2.40;;;8.60;99.20;;;;;;5046222;28;20050;-48
2021/03/17 11:14:38;;;;;;;6.38;1.60;;;8.80;99.20;;;;;;5051469;28;20024;-48
2021/03/17 11:17:08;;;;;;;7.00;1.90;;;8.90;95.10;;;;;;5050064;28;20021;-46
2021/03/17 11:19:34;;;;;;;9.50;1.73;;;9.20;93.80;;;;;;5049608;28;20035;-49
2021/03/17 11:22:00;;;;;;;6.40;2.05;;;9.40;94.50;;;;;;5048845;28;20036;-49
2021/03/17 11:24:26;;;;;;;11.15;2.28;;;9.80;93.80;;;;;;5053541;28;20160;-46
2021/03/17 11:26:52;;;;;;;7.30;1.90;;;10.00;89.70;;;;;;5049703;28;20275;-49
2021/03/17 11:29:23;;;;;;;7.55;2.78;;;9.90;87.60;;;;;;5066429;28;20119;-47
2021/03/17 11:31:54;;;;;;;4.70;1.52;;;9.70;88.20;;;;;;5052975;28;20131;-46
2021/03/17 11:34:20;;;;;;;4.45;1.40;;;9.90;82.60;;;;;;5050251;28;20187;-48
2021/03/17 11:36:47;;;;;;;4.45;2.00;;;10.00;82.40;;;;;;5060268;28;20398;-47
2021/03/17 11:39:15;;;;;;;4.78;1.52;;;10.00;85.70;;;;;;5050046;28;20036;-49
2021/03/17 11:41:42;;;;;;;5.90;1.88;;;10.10;82.20;;;;;;5049466;28;20508;-47
2021/03/17 11:44:13;;;;;;;4.15;1.85;;;10.00;82.10;;;;;;5048788;28;20044;-46
2021/03/17 11:46:39;;;;;;;7.30;1.83;;;9.90;85.00;;;;;;5048982;28;20056;-48
2021/03/17 11:49:04;;;;;;;8.63;1.90;;;9.60;80.20;;;;;;5050666;28;20029;-46
2021/03/17 11:51:30;;;;;;;4.55;1.50;;;9.60;81.80;;;;;;5048252;28;20029;-46
2021/03/17 11:53:55;;;;;;;6.95;2.05;;;9.40;83.40;;;;;;5049806;28;20036;-48
2021/03/17 11:56:21;;;;;;;6.03;2.15;;;9.50;84.30;;;;;;5050895;28;20021;-48
2021/03/17 11:58:48;;;;;;;4.75;1.45;;;9.40;82.30;;;;;;5048604;28;20023;-49
2021/03/17 12:01:14;;;;;;;8.82;2.08;;;9.20;86.10;;;;;;5049606;28;20567;-47
2021/03/17 12:03:41;;;;;;;6.30;1.58;;;9.10;85.60;;;;;;5048348;28;20045;-47
2021/03/17 12:06:07;;;;;;;7.25;2.25;;;8.90;82.90;;;;;;5049060;28;20020;-46
2021/03/17 12:08:33;;;;;;;4.03;1.45;;;8.70;86.70;;;;;;5059774;28;20052;-47
2021/03/17 12:10:58;;;;;;;6.57;1.70;;;8.50;86.90;;;;;;5056516;28;20033;-47
2021/03/17 12:13:24;;;;;;;5.88;2.55;;;8.50;89.50;;;;;;5059675;28;20047;-46
2021/03/17 12:15:50;;;;;;;9.38;1.92;;;8.30;88.80;;;;;;5048919;28;20017;-47
2021/03/17 12:18:17;;;;;;;4.15;1.63;;;8.20;86.70;;;;;;5059558;28;20025;-46
2021/03/17 12:20:44;;;;;;;5.80;1.80;;;7.90;88.10;;;;;;5053340;28;20304;-46
2021/03/17 12:23:10;;;;;;;5.47;1.77;;;7.90;91.30;;;;;;5068334;28;20032;-45
2021/03/17 12:25:36;;;;;;;3.95;1.45;;;7.80;90.90;;;;;;5054118;28;20060;-45
2021/03/17 12:28:02;;;;;;;3.72;1.40;;;7.70;91.40;;;;;;5053293;28;20044;-46
2021/03/17 12:30:28;;;;;;;6.75;1.80;;;7.60;91.40;;;;;;5051364;28;20231;-45
2021/03/17 12:32:55;;;;;;;3.78;1.50;;;7.60;90.70;;;;;;5054055;28;20116;-46
2021/03/17 12:35:23;;;;;;;7.93;1.67;;;7.50;91.00;;;;;;5052351;28;20044;-47
2021/03/17 12:37:49;;;;;;;6.55;1.63;;;7.50;91.90;;;;;;5061161;28;20248;-45
2021/03/17 12:40:18;;;;;;;8.32;1.60;;;7.40;94.70;;;;;;5057951;28;20017;-45
2021/03/17 12:42:44;;;;;;;6.40;1.92;;;7.40;94.90;;;;;;5051687;28;20292;-45
2021/03/17 12:45:11;;;;;;;4.75;1.77;;;7.40;94.80;;;;;;5047782;28;20365;-47
2021/03/17 12:47:38;;;;;;;6.65;1.73;;;7.40;97.30;;;;;;5049412;28;20393;-44
2021/03/17 12:50:07;;;;;;;4.10;2.00;;;7.40;96.90;;;;;;5064143;28;20024;-46
2021/03/17 12:52:33;;;;;;;8.65;1.73;;;7.50;96.40;;;;;;5057961;28;20021;-44
2021/03/17 12:54:59;;;;;;;11.20;2.00;;;7.50;96.40;;;;;;5050178;28;20062;-45
2021/03/17 12:57:24;;;;;;;6.60;1.55;;;7.60;95.10;;;;;;5054875;28;20018;-45
2021/03/17 12:59:50;;;;;;;7.05;1.58;;;7.60;94.80;;;;;;5056097;28;20082;-45
2021/03/17 13:02:17;;;;;;;7.78;1.65;;;7.70;96.30;;;;;;5057432;28;20026;-44
2021/03/17 13:04:42;;;;;;;6.25;1.88;;;7.90;95.00;;;;;;5056153;28;20032;-45